createdAt,value
2022-10-30T00:00:44.519Z,0.00
2022-10-30T00:01:44.009Z,0.00
2022-10-30T00:02:45.076Z,0.00
2022-10-30T00:03:44.530Z,0.00
2022-10-30T00:04:44.287Z,0.00
2022-10-30T00:05:45.022Z,0.00
2022-10-30T00:06:44.627Z,0.00
2022-10-30T00:07:44.786Z,0.00
2022-10-30T00:08:44.932Z,0.00
2022-10-30T00:09:45.086Z,0.00
2022-10-30T00:10:46.026Z,0.00
2022-10-30T00:11:46.027Z,0.00
2022-10-30T00:12:46.024Z,0.00
2022-10-30T00:13:45.664Z,0.00
2022-10-30T00:14:45.799Z,0.00
2022-10-30T00:15:46.524Z,0.00
2022-10-30T00:16:46.149Z,0.00
2022-10-30T00:17:46.385Z,0.00
2022-10-30T00:18:46.552Z,0.00
2022-10-30T00:19:46.672Z,0.00
2022-10-30T00:20:47.567Z,0.00
2022-10-30T00:21:46.955Z,0.00
2022-10-30T00:22:48.028Z,0.00
2022-10-30T00:23:47.537Z,0.00
2022-10-30T00:24:47.397Z,0.00
2022-10-30T00:25:47.542Z,0.00
2022-10-30T00:26:47.661Z,0.00
2022-10-30T00:27:47.803Z,0.00
2022-10-30T00:28:48.040Z,0.00
2022-10-30T00:29:48.173Z,0.00
2022-10-30T00:30:49.026Z,0.00
2022-10-30T00:31:49.528Z,0.00
2022-10-30T00:32:48.798Z,0.00
2022-10-30T00:33:49.539Z,0.00
2022-10-30T00:34:49.194Z,0.00
2022-10-30T00:35:49.616Z,0.00
2022-10-30T00:36:50.532Z,0.00
2022-10-30T00:37:49.817Z,0.00
2022-10-30T00:38:50.008Z,0.00
2022-10-30T00:39:51.031Z,0.00
2022-10-30T00:40:51.041Z,0.00
2022-10-30T00:41:50.441Z,0.00
2022-10-30T00:42:51.533Z,0.00
2022-10-30T00:43:51.570Z,0.00
2022-10-30T00:44:51.535Z,0.00
2022-10-30T00:45:51.544Z,0.00
2022-10-30T00:46:52.032Z,0.00
2022-10-30T00:47:52.034Z,0.00
2022-10-30T00:48:51.657Z,0.00
2022-10-30T00:49:51.813Z,0.00
2022-10-30T00:50:52.056Z,0.00
2022-10-30T00:51:52.072Z,0.00
2022-10-30T00:52:53.037Z,0.00
2022-10-30T00:53:53.075Z,0.00
2022-10-30T00:54:53.540Z,0.00
2022-10-30T00:55:53.048Z,0.00
2022-10-30T00:56:52.950Z,0.00
2022-10-30T00:57:53.112Z,0.00
2022-10-30T00:58:53.271Z,0.00
2022-10-30T00:59:53.551Z,0.00
2022-10-30T01:00:53.661Z,0.00
2022-10-30T01:01:53.821Z,0.00
2022-10-30T01:02:54.603Z,0.00
2022-10-30T01:03:55.039Z,0.00
2022-10-30T01:04:54.368Z,0.00
2022-10-30T01:05:55.046Z,0.00
2022-10-30T01:06:55.534Z,0.00
2022-10-30T01:07:56.209Z,0.00
2022-10-30T01:08:58.840Z,0.00
2022-10-30T01:09:57.225Z,0.00
2022-10-30T01:10:56.037Z,0.00
2022-10-30T01:11:56.599Z,0.00
2022-10-30T01:12:55.794Z,0.00
2022-10-30T01:13:56.543Z,0.00
2022-10-30T01:14:56.218Z,0.00
2022-10-30T01:15:57.046Z,0.00
2022-10-30T01:16:56.569Z,0.00
2022-10-30T01:17:58.328Z,0.00
2022-10-30T01:18:56.972Z,0.00
2022-10-30T01:19:57.643Z,0.00
2022-10-30T01:20:58.043Z,0.00
2022-10-30T01:21:57.558Z,0.00
2022-10-30T01:22:57.776Z,0.00
2022-10-30T01:23:58.566Z,0.00
2022-10-30T01:24:57.954Z,0.00
2022-10-30T01:25:58.138Z,0.00
2022-10-30T01:26:58.313Z,0.00
2022-10-30T01:27:58.469Z,0.00
2022-10-30T01:28:58.626Z,0.00
2022-10-30T01:29:58.782Z,0.00
2022-10-30T01:30:58.934Z,0.00
2022-10-30T01:31:59.559Z,0.00
2022-10-30T01:32:59.821Z,0.00
2022-10-30T01:34:00.082Z,0.00
2022-10-30T01:34:59.722Z,0.00
2022-10-30T01:36:00.554Z,0.00
2022-10-30T01:37:00.035Z,0.00
2022-10-30T01:38:00.709Z,0.00
2022-10-30T01:39:00.565Z,0.00
2022-10-30T01:40:00.564Z,0.00
2022-10-30T01:41:01.555Z,0.00
2022-10-30T01:42:01.060Z,0.00
2022-10-30T01:43:01.072Z,0.00
2022-10-30T01:44:02.050Z,0.00
2022-10-30T01:45:02.049Z,0.00
2022-10-30T01:46:02.544Z,0.00
2022-10-30T01:47:02.907Z,0.00
2022-10-30T01:48:02.012Z,0.00
2022-10-30T01:49:02.565Z,0.00
2022-10-30T01:50:03.057Z,0.00
2022-10-30T01:51:02.539Z,0.00
2022-10-30T01:52:02.674Z,0.00
2022-10-30T01:53:02.838Z,0.00
2022-10-30T01:54:03.076Z,0.00
2022-10-30T01:55:03.198Z,0.00
2022-10-30T01:56:03.337Z,0.00
2022-10-30T01:57:04.063Z,0.00
2022-10-30T01:58:03.684Z,0.00
2022-10-30T01:59:04.059Z,0.00
2022-10-30T02:00:05.562Z,0.00
2022-10-30T02:01:04.222Z,0.00
2022-10-30T02:02:04.703Z,0.00
2022-10-30T02:03:05.060Z,0.00
2022-10-30T02:04:05.752Z,0.00
2022-10-30T02:05:04.751Z,0.00
2022-10-30T02:06:04.906Z,0.00
2022-10-30T02:07:05.062Z,0.00
2022-10-30T02:08:06.065Z,0.00
2022-10-30T02:09:06.079Z,0.00
2022-10-30T02:10:05.596Z,0.00
2022-10-30T02:11:06.559Z,0.00
2022-10-30T02:12:06.079Z,0.00
2022-10-30T02:13:06.105Z,0.00
2022-10-30T02:14:06.253Z,0.00
2022-10-30T02:15:06.398Z,0.00
2022-10-30T02:16:07.069Z,0.00
2022-10-30T02:17:07.570Z,0.00
2022-10-30T02:18:06.958Z,0.00
2022-10-30T02:19:07.111Z,0.00
2022-10-30T02:20:08.076Z,0.00
2022-10-30T02:21:07.458Z,0.00
2022-10-30T02:22:07.681Z,0.00
2022-10-30T02:23:08.304Z,0.00
2022-10-30T02:24:08.109Z,0.00
2022-10-30T02:25:09.070Z,0.00
2022-10-30T02:26:08.312Z,0.00
2022-10-30T02:27:09.061Z,0.00
2022-10-30T02:28:09.692Z,0.00
2022-10-30T02:29:09.082Z,0.00
2022-10-30T02:30:08.996Z,0.00
2022-10-30T02:31:10.070Z,0.00
2022-10-30T02:32:09.311Z,0.00
2022-10-30T02:33:10.120Z,0.00
2022-10-30T02:34:09.652Z,0.00
2022-10-30T02:35:10.081Z,0.00
2022-10-30T02:36:10.023Z,0.00
2022-10-30T02:37:10.199Z,0.00
2022-10-30T02:38:10.393Z,0.00
2022-10-30T02:39:10.591Z,0.00
2022-10-30T02:40:11.083Z,0.00
2022-10-30T02:41:11.000Z,0.00
2022-10-30T02:42:11.188Z,0.00
2022-10-30T02:43:12.074Z,0.00
2022-10-30T02:44:12.076Z,0.00
2022-10-30T02:45:12.084Z,0.00
2022-10-30T02:46:11.888Z,0.00
2022-10-30T02:47:12.577Z,0.00
2022-10-30T02:48:12.260Z,0.00
2022-10-30T02:49:12.582Z,0.00
2022-10-30T02:50:12.637Z,0.00
2022-10-30T02:51:13.575Z,0.00
2022-10-30T02:52:13.576Z,0.00
2022-10-30T02:53:13.577Z,0.00
2022-10-30T02:54:13.235Z,0.00
2022-10-30T02:55:14.082Z,0.00
2022-10-30T02:56:13.578Z,0.00
2022-10-30T02:57:14.597Z,0.00
2022-10-30T02:58:13.962Z,0.00
2022-10-30T02:59:14.134Z,0.00
2022-10-30T03:00:15.090Z,0.00
2022-10-30T03:01:15.226Z,0.00
2022-10-30T03:02:15.164Z,0.00
2022-10-30T03:03:17.524Z,0.00
2022-10-30T03:04:16.585Z,0.00
2022-10-30T03:05:15.063Z,0.00
2022-10-30T03:06:16.068Z,0.00
2022-10-30T03:07:48.817Z,0.00
2022-10-30T03:08:15.560Z,0.00
2022-10-30T03:09:15.693Z,0.00
2022-10-30T03:10:16.619Z,0.00
2022-10-30T03:11:16.626Z,0.00
2022-10-30T03:12:16.152Z,0.00
2022-10-30T03:13:17.114Z,0.00
2022-10-30T03:14:16.509Z,0.00
2022-10-30T03:15:17.614Z,0.00
2022-10-30T03:16:16.871Z,0.00
2022-10-30T03:17:17.037Z,0.00
2022-10-30T03:18:17.627Z,0.00
2022-10-30T03:19:17.632Z,0.00
2022-10-30T03:20:17.661Z,0.00
2022-10-30T03:21:18.621Z,0.00
2022-10-30T03:22:17.997Z,0.00
2022-10-30T03:23:18.135Z,0.00
2022-10-30T03:24:18.306Z,0.00
2022-10-30T03:25:18.464Z,0.00
2022-10-30T03:26:19.146Z,0.00
2022-10-30T03:27:18.787Z,0.00
2022-10-30T03:28:18.940Z,0.00
2022-10-30T03:29:19.099Z,0.00
2022-10-30T03:30:19.629Z,0.00
2022-10-30T03:31:19.401Z,0.00
2022-10-30T03:32:20.174Z,0.00
2022-10-30T03:33:19.740Z,0.00
2022-10-30T03:34:19.883Z,0.00
2022-10-30T03:35:20.060Z,0.00
2022-10-30T03:36:20.635Z,0.00
2022-10-30T03:37:21.133Z,0.00
2022-10-30T03:38:21.127Z,0.00
2022-10-30T03:39:21.649Z,0.00
2022-10-30T03:40:21.629Z,0.00
2022-10-30T03:41:21.162Z,0.00
2022-10-30T03:42:22.126Z,0.00
2022-10-30T03:43:22.128Z,0.00
2022-10-30T03:44:22.132Z,0.00
2022-10-30T03:45:22.646Z,0.00
2022-10-30T03:46:21.909Z,0.00
2022-10-30T03:47:22.061Z,0.00
2022-10-30T03:48:23.128Z,0.00
2022-10-30T03:49:22.638Z,0.00
2022-10-30T03:50:23.123Z,0.00
2022-10-30T03:51:22.777Z,0.00
2022-10-30T03:52:22.931Z,0.00
2022-10-30T03:53:23.088Z,0.00
2022-10-30T03:54:23.635Z,0.00
2022-10-30T03:55:24.127Z,0.00
2022-10-30T03:56:24.632Z,0.00
2022-10-30T03:57:24.138Z,0.00
2022-10-30T03:58:24.624Z,0.00
2022-10-30T03:59:25.130Z,0.00
2022-10-30T04:00:24.497Z,0.00
2022-10-30T04:01:24.736Z,0.00
2022-10-30T04:02:25.148Z,0.00
2022-10-30T04:03:25.045Z,0.00
2022-10-30T04:04:25.226Z,0.00
2022-10-30T04:05:25.386Z,0.00
2022-10-30T04:06:25.547Z,0.00
2022-10-30T04:07:26.146Z,0.00
2022-10-30T04:08:26.628Z,0.00
2022-10-30T04:09:27.148Z,0.00
2022-10-30T04:10:26.292Z,0.00
2022-10-30T04:11:26.533Z,0.00
2022-10-30T04:12:26.645Z,0.00
2022-10-30T04:13:26.797Z,0.00
2022-10-30T04:14:26.924Z,0.00
2022-10-30T04:15:27.079Z,0.00
2022-10-30T04:16:28.132Z,0.00
2022-10-30T04:17:27.380Z,0.00
2022-10-30T04:18:28.560Z,0.00
2022-10-30T04:19:27.691Z,0.00
2022-10-30T04:20:27.869Z,0.00
2022-10-30T04:21:28.029Z,0.00
2022-10-30T04:22:28.160Z,0.00
2022-10-30T04:23:28.318Z,0.00
2022-10-30T04:24:28.472Z,0.00
2022-10-30T04:25:28.646Z,0.00
2022-10-30T04:26:29.641Z,0.00
2022-10-30T04:27:29.009Z,0.00
2022-10-30T04:28:30.141Z,0.00
2022-10-30T04:29:29.274Z,0.00
2022-10-30T04:30:29.420Z,0.00
2022-10-30T04:31:29.656Z,0.00
2022-10-30T04:32:29.813Z,0.00
2022-10-30T04:33:30.149Z,0.00
2022-10-30T04:34:30.638Z,0.00
2022-10-30T04:35:30.243Z,0.00
2022-10-30T04:36:31.139Z,0.00
2022-10-30T04:37:30.509Z,0.00
2022-10-30T04:38:31.647Z,0.00
2022-10-30T04:39:30.891Z,0.00
2022-10-30T04:40:31.648Z,0.00
2022-10-30T04:41:32.147Z,0.00
2022-10-30T04:42:31.653Z,0.00
2022-10-30T04:43:32.644Z,0.00
2022-10-30T04:44:31.906Z,0.00
2022-10-30T04:45:32.069Z,0.00
2022-10-30T04:46:32.218Z,0.00
2022-10-30T04:48:33.142Z,0.00
2022-10-30T04:49:32.663Z,0.00
2022-10-30T04:50:32.827Z,0.00
2022-10-30T04:51:32.985Z,0.00
2022-10-30T04:52:33.655Z,0.00
2022-10-30T04:53:33.657Z,0.00
2022-10-30T04:54:34.151Z,0.00
2022-10-30T04:55:33.649Z,0.00
2022-10-30T04:56:33.782Z,0.00
2022-10-30T04:57:33.904Z,0.00
2022-10-30T04:58:34.053Z,0.00
2022-10-30T04:59:34.181Z,0.00
2022-10-30T05:00:34.328Z,0.00
2022-10-30T05:01:34.590Z,0.00
2022-10-30T05:02:34.806Z,0.00
2022-10-30T05:03:34.846Z,0.00
2022-10-30T05:04:35.645Z,0.00
2022-10-30T05:05:35.139Z,0.00
2022-10-30T05:06:36.156Z,0.00
2022-10-30T05:07:36.165Z,0.00
2022-10-30T05:08:36.157Z,0.00
2022-10-30T05:09:35.777Z,0.00
2022-10-30T05:10:35.895Z,0.00
2022-10-30T05:11:37.648Z,0.00
2022-10-30T05:12:37.179Z,0.00
2022-10-30T05:13:36.661Z,0.00
2022-10-30T05:14:36.547Z,0.00
2022-10-30T05:15:37.648Z,0.00
2022-10-30T05:16:36.903Z,0.00
2022-10-30T05:17:37.170Z,0.00
2022-10-30T05:18:38.151Z,0.00
2022-10-30T05:19:37.378Z,0.00
2022-10-30T05:20:37.669Z,0.00
2022-10-30T05:21:37.707Z,0.00
2022-10-30T05:22:38.654Z,0.00
2022-10-30T05:23:38.034Z,0.00
2022-10-30T05:24:38.205Z,0.00
2022-10-30T05:25:38.665Z,0.00
2022-10-30T05:26:38.578Z,0.00
2022-10-30T05:27:38.722Z,0.00
2022-10-30T05:28:38.883Z,0.00
2022-10-30T05:29:39.650Z,0.00
2022-10-30T05:30:40.152Z,0.00
2022-10-30T05:31:39.298Z,0.00
2022-10-30T05:32:40.159Z,0.00
2022-10-30T05:33:40.155Z,0.00
2022-10-30T05:34:39.785Z,0.00
2022-10-30T05:35:39.929Z,0.00
2022-10-30T05:36:40.205Z,0.00
2022-10-30T05:37:40.427Z,0.00
2022-10-30T05:38:40.567Z,0.00
2022-10-30T05:39:41.655Z,0.00
2022-10-30T05:40:41.680Z,0.00
2022-10-30T05:41:41.040Z,0.00
2022-10-30T05:42:42.197Z,0.00
2022-10-30T05:43:41.401Z,0.00
2022-10-30T05:44:59.734Z,0.00
2022-10-30T05:45:43.875Z,4.00
2022-10-30T05:46:42.751Z,4.00
2022-10-30T05:47:42.659Z,0.00
2022-10-30T05:48:42.260Z,4.00
2022-10-30T05:49:42.390Z,4.00
2022-10-30T05:50:43.541Z,4.00
2022-10-30T05:51:42.665Z,4.00
2022-10-30T05:52:42.897Z,8.00
2022-10-30T05:53:43.151Z,8.00
2022-10-30T05:54:43.290Z,8.00
2022-10-30T05:55:44.185Z,12.00
2022-10-30T05:56:43.574Z,12.00
2022-10-30T05:57:43.674Z,12.00
2022-10-30T05:58:43.798Z,16.00
2022-10-30T05:59:43.937Z,20.00
2022-10-30T06:00:44.048Z,24.00
2022-10-30T06:02:44.563Z,32.00
2022-10-30T06:03:44.736Z,40.00
2022-10-30T06:04:44.908Z,48.00
2022-10-30T06:05:45.030Z,52.00
2022-10-30T06:06:45.152Z,56.00
2022-10-30T06:07:45.264Z,64.00
2022-10-30T06:08:46.500Z,72.00
2022-10-30T06:09:45.722Z,84.00
2022-10-30T06:10:46.667Z,92.00
2022-10-30T06:11:46.026Z,104.00
2022-10-30T06:12:46.278Z,120.00
2022-10-30T06:13:47.173Z,132.00
2022-10-30T06:14:47.173Z,148.00
2022-10-30T06:15:46.666Z,168.00
2022-10-30T06:16:46.770Z,184.00
2022-10-30T06:17:46.918Z,196.00
2022-10-30T06:18:47.667Z,220.00
2022-10-30T06:19:47.686Z,236.00
2022-10-30T06:20:47.678Z,256.00
2022-10-30T06:21:47.543Z,272.00
2022-10-30T06:22:48.180Z,288.00
2022-10-30T06:23:47.911Z,308.00
2022-10-30T06:24:48.040Z,332.00
2022-10-30T06:25:48.307Z,356.00
2022-10-30T06:26:49.169Z,384.00
2022-10-30T06:27:48.647Z,416.00
2022-10-30T06:28:49.666Z,444.00
2022-10-30T06:29:49.671Z,472.00
2022-10-30T06:30:49.176Z,504.00
2022-10-30T06:31:49.306Z,540.00
2022-10-30T06:32:50.177Z,580.00
2022-10-30T06:33:49.663Z,620.00
2022-10-30T06:34:49.803Z,660.00
2022-10-30T06:35:49.924Z,712.00
2022-10-30T06:36:50.085Z,768.00
2022-10-30T06:37:50.227Z,832.00
2022-10-30T06:38:51.176Z,896.00
2022-10-30T06:39:50.528Z,952.00
2022-10-30T06:40:50.644Z,996.00
2022-10-30T06:41:50.882Z,1020.00
2022-10-30T06:42:51.009Z,1024.00
2022-10-30T06:43:51.136Z,1016.00
2022-10-30T06:44:51.389Z,1020.00
2022-10-30T06:45:51.567Z,1036.00
2022-10-30T06:46:52.196Z,1068.00
2022-10-30T06:47:51.795Z,1124.00
2022-10-30T06:48:52.683Z,1196.00
2022-10-30T06:49:52.206Z,1244.00
2022-10-30T06:50:52.215Z,1252.00
2022-10-30T06:51:52.679Z,1220.00
2022-10-30T06:52:54.190Z,1168.00
2022-10-30T06:53:53.180Z,1120.00
2022-10-30T06:54:52.793Z,1108.00
2022-10-30T06:55:58.668Z,1128.00
2022-10-30T06:56:55.187Z,1160.00
2022-10-30T06:57:53.334Z,1188.00
2022-10-30T06:58:53.496Z,1212.00
2022-10-30T06:59:53.654Z,1244.00
2022-10-30T07:00:54.193Z,1276.00
2022-10-30T07:01:57.308Z,1300.00
2022-10-30T07:02:55.366Z,1320.00
2022-10-30T07:03:55.183Z,1356.00
2022-10-30T07:04:54.437Z,1412.00
2022-10-30T07:05:55.181Z,1492.00
2022-10-30T07:06:54.716Z,1580.00
2022-10-30T07:07:54.908Z,1740.00
2022-10-30T07:08:55.095Z,1996.00
2022-10-30T07:09:55.253Z,2288.00
2022-10-30T07:10:56.193Z,2564.00
2022-10-30T07:11:56.917Z,2784.00
2022-10-30T07:12:57.992Z,3084.00
2022-10-30T07:13:55.971Z,4236.00
2022-10-30T07:14:56.143Z,6032.00
2022-10-30T07:15:56.319Z,7608.00
2022-10-30T07:16:57.189Z,9016.00
2022-10-30T07:17:56.986Z,10880.00
2022-10-30T07:19:00.646Z,11756.00
2022-10-30T07:19:59.056Z,12812.00
2022-10-30T07:20:57.684Z,12828.00
2022-10-30T07:21:57.317Z,14880.00
2022-10-30T07:22:57.489Z,16576.00
2022-10-30T07:23:57.651Z,18912.00
2022-10-30T07:24:58.684Z,20416.00
2022-10-30T07:26:03.356Z,23808.00
2022-10-30T07:27:00.688Z,24192.00
2022-10-30T07:27:58.726Z,23872.00
2022-10-30T07:28:59.189Z,23776.00
2022-10-30T07:29:58.718Z,23744.00
2022-10-30T07:30:58.904Z,25024.00
2022-10-30T07:32:03.096Z,22560.00
2022-10-30T07:33:01.052Z,17184.00
2022-10-30T07:34:00.191Z,11268.00
2022-10-30T07:34:59.685Z,6632.00
2022-10-30T07:35:59.845Z,5064.00
2022-10-30T07:36:59.998Z,5040.00
2022-10-30T07:38:00.143Z,5020.00
2022-10-30T07:39:00.289Z,5024.00
2022-10-30T07:40:01.206Z,5040.00
2022-10-30T07:41:00.600Z,5036.00
2022-10-30T07:42:01.693Z,5028.00
2022-10-30T07:43:02.336Z,5016.00
2022-10-30T07:44:01.170Z,4988.00
2022-10-30T07:45:01.350Z,4964.00
2022-10-30T07:46:02.201Z,4944.00
2022-10-30T07:47:02.206Z,4912.00
2022-10-30T07:48:02.437Z,4844.00
2022-10-30T07:49:02.206Z,4872.00
2022-10-30T07:50:03.197Z,5044.00
2022-10-30T07:51:03.194Z,5128.00
2022-10-30T07:52:02.573Z,5144.00
2022-10-30T07:53:03.694Z,4972.00
2022-10-30T07:54:02.983Z,7328.00
2022-10-30T07:55:03.160Z,12548.00
2022-10-30T07:56:03.332Z,15104.00
2022-10-30T07:57:04.203Z,20352.00
2022-10-30T07:58:03.632Z,24416.00
2022-10-30T07:59:04.698Z,22944.00
2022-10-30T08:00:04.745Z,23744.00
2022-10-30T08:01:04.249Z,25632.00
2022-10-30T08:02:04.480Z,29440.00
2022-10-30T08:03:05.210Z,32768.00
2022-10-30T08:04:05.711Z,35424.00
2022-10-30T08:05:04.840Z,41920.00
2022-10-30T08:06:05.276Z,44224.00
2022-10-30T08:07:05.227Z,44288.00
2022-10-30T08:08:05.375Z,50880.00
2022-10-30T08:09:05.520Z,69440.00
2022-10-30T08:10:06.213Z,73248.00
2022-10-30T08:11:05.823Z,59296.00
2022-10-30T08:12:05.997Z,47104.00
2022-10-30T08:13:06.160Z,41728.00
2022-10-30T08:14:06.303Z,34208.00
2022-10-30T08:15:07.210Z,28064.00
2022-10-30T08:16:07.208Z,24448.00
2022-10-30T08:17:07.740Z,22048.00
2022-10-30T08:18:06.974Z,18944.00
2022-10-30T08:19:07.111Z,17344.00
2022-10-30T08:20:08.227Z,17152.00
2022-10-30T08:21:07.453Z,15360.00
2022-10-30T08:22:08.209Z,12536.00
2022-10-30T08:23:08.220Z,12856.00
2022-10-30T08:24:07.846Z,12952.00
2022-10-30T08:25:08.089Z,12556.00
2022-10-30T08:26:08.112Z,11976.00
2022-10-30T08:27:09.218Z,11692.00
2022-10-30T08:28:09.218Z,8268.00
2022-10-30T08:29:09.210Z,9404.00
2022-10-30T08:30:09.226Z,10864.00
2022-10-30T08:31:09.711Z,11612.00
2022-10-30T08:32:10.234Z,11932.00
2022-10-30T08:33:09.364Z,12560.00
2022-10-30T08:34:10.236Z,12808.00
2022-10-30T08:35:09.790Z,12896.00
2022-10-30T08:36:10.715Z,12932.00
2022-10-30T08:37:10.105Z,12920.00
2022-10-30T08:38:11.220Z,12976.00
2022-10-30T08:39:11.223Z,12176.00
2022-10-30T08:40:10.749Z,12696.00
2022-10-30T08:41:10.770Z,12936.00
2022-10-30T08:42:10.935Z,12956.00
2022-10-30T08:43:11.227Z,13060.00
2022-10-30T08:44:11.279Z,12544.00
2022-10-30T08:45:11.466Z,12584.00
2022-10-30T08:46:12.223Z,12292.00
2022-10-30T08:47:12.714Z,11472.00
2022-10-30T08:48:12.096Z,11300.00
2022-10-30T08:49:13.227Z,10432.00
2022-10-30T08:50:13.250Z,9524.00
2022-10-30T08:51:12.678Z,10412.00
2022-10-30T08:52:13.723Z,11100.00
2022-10-30T08:53:13.239Z,11236.00
2022-10-30T08:54:13.743Z,11476.00
2022-10-30T08:55:13.354Z,11556.00
2022-10-30T08:56:14.224Z,12000.00
2022-10-30T08:57:13.693Z,11772.00
2022-10-30T08:58:14.237Z,11620.00
2022-10-30T08:59:18.670Z,12140.00
2022-10-30T09:00:16.177Z,12000.00
2022-10-30T09:01:14.504Z,11760.00
2022-10-30T09:02:14.711Z,11496.00
2022-10-30T09:03:14.786Z,11648.00
2022-10-30T09:04:14.949Z,11648.00
2022-10-30T09:05:15.084Z,10280.00
2022-10-30T09:06:15.238Z,7716.00
2022-10-30T09:07:16.227Z,9172.00
2022-10-30T09:08:15.740Z,11324.00
2022-10-30T09:09:15.767Z,10888.00
2022-10-30T09:10:15.918Z,10120.00
2022-10-30T09:11:16.730Z,9448.00
2022-10-30T09:12:16.216Z,8156.00
2022-10-30T09:13:16.745Z,7292.00
2022-10-30T09:14:16.535Z,8140.00
2022-10-30T09:15:16.725Z,9372.00
2022-10-30T09:16:17.735Z,9832.00
2022-10-30T09:17:16.998Z,10100.00
2022-10-30T09:18:17.178Z,9368.00
2022-10-30T09:19:18.885Z,9832.00
2022-10-30T09:20:18.747Z,10540.00
2022-10-30T09:21:17.605Z,9464.00
2022-10-30T09:22:18.748Z,8600.00
2022-10-30T09:23:17.984Z,8964.00
2022-10-30T09:24:18.127Z,9052.00
2022-10-30T09:25:19.240Z,8740.00
2022-10-30T09:26:20.837Z,9276.00
2022-10-30T09:27:20.235Z,9108.00
2022-10-30T09:28:19.733Z,9340.00
2022-10-30T09:29:18.980Z,9660.00
2022-10-30T09:30:19.737Z,9816.00
2022-10-30T09:31:19.374Z,9800.00
2022-10-30T09:32:20.244Z,9632.00
2022-10-30T09:33:20.737Z,9560.00
2022-10-30T09:34:20.805Z,9448.00
2022-10-30T09:35:20.739Z,8820.00
2022-10-30T09:36:22.270Z,9224.00
2022-10-30T09:37:20.395Z,9112.00
2022-10-30T09:38:21.240Z,8956.00
2022-10-30T09:39:20.752Z,8704.00
2022-10-30T09:40:21.835Z,8840.00
2022-10-30T09:41:21.750Z,8700.00
2022-10-30T09:42:21.404Z,8588.00
2022-10-30T09:43:21.567Z,8376.00
2022-10-30T09:44:21.711Z,7352.00
2022-10-30T09:45:29.365Z,7356.00
2022-10-30T09:46:24.741Z,7664.00
2022-10-30T09:47:23.546Z,8000.00
2022-10-30T09:48:23.421Z,8120.00
2022-10-30T09:49:22.549Z,7916.00
2022-10-30T09:50:22.755Z,7660.00
2022-10-30T09:51:23.747Z,8296.00
2022-10-30T09:52:23.260Z,8228.00
2022-10-30T09:53:23.293Z,7192.00
2022-10-30T09:54:24.263Z,7700.00
2022-10-30T09:55:23.623Z,7664.00
2022-10-30T09:56:23.802Z,6808.00
2022-10-30T09:57:23.919Z,7772.00
2022-10-30T09:58:24.747Z,8040.00
2022-10-30T09:59:24.267Z,7676.00
2022-10-30T10:00:24.428Z,7092.00
2022-10-30T10:01:24.651Z,7304.00
2022-10-30T10:02:25.436Z,7028.00
2022-10-30T10:03:24.922Z,7160.00
2022-10-30T10:04:26.982Z,7060.00
2022-10-30T10:05:25.263Z,6652.00
2022-10-30T10:06:26.254Z,6988.00
2022-10-30T10:07:25.645Z,6548.00
2022-10-30T10:08:25.829Z,6972.00
2022-10-30T10:09:26.020Z,6988.00
2022-10-30T10:10:26.159Z,6916.00
2022-10-30T10:11:26.330Z,6956.00
2022-10-30T10:12:26.475Z,6908.00
2022-10-30T10:13:27.290Z,7096.00
2022-10-30T10:14:26.804Z,6980.00
2022-10-30T10:15:26.971Z,6956.00
2022-10-30T10:16:27.116Z,6988.00
2022-10-30T10:17:27.285Z,5972.00
2022-10-30T10:18:27.477Z,6936.00
2022-10-30T10:19:27.672Z,6276.00
2022-10-30T10:20:28.272Z,6324.00
2022-10-30T10:21:28.049Z,6500.00
2022-10-30T10:22:28.248Z,6396.00
2022-10-30T10:23:28.398Z,6532.00
2022-10-30T10:24:28.573Z,6736.00
2022-10-30T10:25:29.258Z,5604.00
2022-10-30T10:26:28.907Z,5640.00
2022-10-30T10:27:29.766Z,5680.00
2022-10-30T10:28:31.705Z,5916.00
2022-10-30T10:29:30.434Z,6544.00
2022-10-30T10:30:30.263Z,6300.00
2022-10-30T10:31:30.764Z,6160.00
2022-10-30T10:32:30.274Z,6348.00
2022-10-30T10:33:30.046Z,6468.00
2022-10-30T10:34:30.276Z,6160.00
2022-10-30T10:35:30.405Z,6284.00
2022-10-30T10:36:30.553Z,6264.00
2022-10-30T10:37:31.266Z,6220.00
2022-10-30T10:38:30.930Z,6168.00
2022-10-30T10:39:31.101Z,5204.00
2022-10-30T10:40:31.775Z,4728.00
2022-10-30T10:41:31.434Z,4324.00
2022-10-30T10:42:31.610Z,4960.00
2022-10-30T10:43:32.278Z,5676.00
2022-10-30T10:44:32.282Z,5720.00
2022-10-30T10:45:32.770Z,5612.00
2022-10-30T10:46:32.281Z,5212.00
2022-10-30T10:47:32.778Z,4880.00
2022-10-30T10:48:33.270Z,4496.00
2022-10-30T10:49:35.812Z,4620.00
2022-10-30T10:50:34.088Z,4784.00
2022-10-30T10:51:33.210Z,4768.00
2022-10-30T10:52:33.394Z,4724.00
2022-10-30T10:53:34.273Z,4764.00
2022-10-30T10:54:34.282Z,4876.00
2022-10-30T10:55:34.777Z,4796.00
2022-10-30T10:56:34.294Z,4744.00
2022-10-30T10:57:35.300Z,4640.00
2022-10-30T10:58:34.548Z,4732.00
2022-10-30T10:59:34.725Z,4760.00
2022-10-30T11:00:34.895Z,4744.00
2022-10-30T11:01:36.304Z,4628.00
2022-10-30T11:02:35.879Z,4572.00
2022-10-30T11:03:35.326Z,4476.00
2022-10-30T11:04:35.532Z,4540.00
2022-10-30T11:05:36.286Z,4372.00
2022-10-30T11:06:35.939Z,4620.00
2022-10-30T11:07:36.107Z,4724.00
2022-10-30T11:08:36.273Z,4500.00
2022-10-30T11:09:36.430Z,4540.00
2022-10-30T11:10:36.604Z,4540.00
2022-10-30T11:11:36.778Z,4008.00
2022-10-30T11:12:36.954Z,4708.00
2022-10-30T11:13:37.128Z,4668.00
2022-10-30T11:14:37.291Z,4576.00
2022-10-30T11:15:38.286Z,4384.00
2022-10-30T11:16:37.798Z,4408.00
2022-10-30T11:17:37.852Z,4264.00
2022-10-30T11:18:38.030Z,4380.00
2022-10-30T11:19:38.211Z,4368.00
2022-10-30T11:20:39.306Z,4304.00
2022-10-30T11:21:38.600Z,4332.00
2022-10-30T11:22:38.769Z,4212.00
2022-10-30T11:23:38.944Z,4264.00
2022-10-30T11:24:39.134Z,4168.00
2022-10-30T11:25:39.329Z,4156.00
2022-10-30T11:26:39.533Z,4008.00
2022-10-30T11:27:39.702Z,3792.00
2022-10-30T11:28:39.870Z,3952.00
2022-10-30T11:29:41.045Z,3824.00
2022-10-30T11:30:40.197Z,3768.00
2022-10-30T11:31:40.387Z,3688.00
2022-10-30T11:32:40.540Z,3808.00
2022-10-30T11:33:40.694Z,3924.00
2022-10-30T11:34:40.872Z,4116.00
2022-10-30T11:35:41.021Z,3944.00
2022-10-30T11:36:41.304Z,4064.00
2022-10-30T11:37:42.290Z,4056.00
2022-10-30T11:38:42.300Z,4180.00
2022-10-30T11:39:41.699Z,3780.00
2022-10-30T11:40:41.849Z,3736.00
2022-10-30T11:41:42.012Z,3696.00
2022-10-30T11:42:42.150Z,4128.00
2022-10-30T11:43:43.293Z,3900.00
2022-10-30T11:44:42.566Z,4172.00
2022-10-30T11:45:42.739Z,4256.00
2022-10-30T11:46:43.790Z,4256.00
2022-10-30T11:47:44.062Z,4300.00
2022-10-30T11:48:43.208Z,4332.00
2022-10-30T11:49:43.440Z,4176.00
2022-10-30T11:50:44.297Z,4316.00
2022-10-30T11:51:43.811Z,4344.00
2022-10-30T11:52:44.024Z,4124.00
2022-10-30T11:53:44.211Z,4188.00
2022-10-30T11:54:44.391Z,4108.00
2022-10-30T11:55:44.814Z,4124.00
2022-10-30T11:56:44.718Z,3832.00
2022-10-30T11:57:44.890Z,3960.00
2022-10-30T11:58:45.803Z,4016.00
2022-10-30T11:59:45.802Z,3996.00
2022-10-30T12:00:45.346Z,3868.00
2022-10-30T12:01:46.352Z,3804.00
2022-10-30T12:02:46.350Z,3824.00
2022-10-30T12:03:46.813Z,3792.00
2022-10-30T12:04:45.976Z,3760.00
2022-10-30T12:05:49.399Z,3716.00
2022-10-30T12:06:47.354Z,3760.00
2022-10-30T12:07:47.309Z,3852.00
2022-10-30T12:08:47.302Z,3772.00
2022-10-30T12:09:46.793Z,3388.00
2022-10-30T12:10:46.942Z,3280.00
2022-10-30T12:11:47.101Z,3540.00
2022-10-30T12:12:47.814Z,3544.00
2022-10-30T12:13:47.814Z,3144.00
2022-10-30T12:14:48.304Z,3648.00
2022-10-30T12:15:48.814Z,3496.00
2022-10-30T12:16:48.032Z,3532.00
2022-10-30T12:17:48.177Z,3256.00
2022-10-30T12:18:48.368Z,3184.00
2022-10-30T12:19:48.519Z,3388.00
2022-10-30T12:20:48.693Z,3496.00
2022-10-30T12:21:48.816Z,3408.00
2022-10-30T12:22:48.951Z,3300.00
2022-10-30T12:23:49.323Z,3236.00
2022-10-30T12:24:50.311Z,3140.00
2022-10-30T12:25:50.320Z,3072.00
2022-10-30T12:26:49.702Z,3108.00
2022-10-30T12:27:50.815Z,2880.00
2022-10-30T12:28:50.042Z,2944.00
2022-10-30T12:30:07.407Z,2904.00
2022-10-30T12:30:52.379Z,3060.00
2022-10-30T12:31:50.590Z,2960.00
2022-10-30T12:32:51.310Z,2804.00
2022-10-30T12:33:50.962Z,2592.00
2022-10-30T12:34:51.137Z,2680.00
2022-10-30T12:35:51.293Z,2668.00
2022-10-30T12:36:51.484Z,2824.00
2022-10-30T12:37:51.660Z,2780.00
2022-10-30T12:38:51.838Z,2680.00
2022-10-30T12:39:52.820Z,2856.00
2022-10-30T12:40:52.202Z,2916.00